sensor_id;sensor_type;location;lat;lon;timestamp;P1;durP1;ratioP1;P2;durP2;ratioP2
10041;SDS011;5061;49.068;12.058;2022-11-12T00:00:03;3.10;;;2.37;;
10041;SDS011;5061;49.068;12.058;2022-11-12T00:03:24;3.03;;;2.50;;
10041;SDS011;5061;49.068;12.058;2022-11-12T00:06:45;4.30;;;3.00;;
10041;SDS011;5061;49.068;12.058;2022-11-12T00:10:05;3.30;;;2.60;;
10041;SDS011;5061;49.068;12.058;2022-11-12T00:13:26;2.60;;;2.30;;
10041;SDS011;5061;49.068;12.058;2022-11-12T00:16:47;2.97;;;2.40;;
10041;SDS011;5061;49.068;12.058;2022-11-12T00:20:07;3.03;;;2.73;;
10041;SDS011;5061;49.068;12.058;2022-11-12T00:23:28;2.87;;;2.27;;
10041;SDS011;5061;49.068;12.058;2022-11-12T00:26:49;2.70;;;2.23;;
10041;SDS011;5061;49.068;12.058;2022-11-12T00:30:09;2.50;;;2.20;;
10041;SDS011;5061;49.068;12.058;2022-11-12T00:33:31;2.90;;;2.40;;
10041;SDS011;5061;49.068;12.058;2022-11-12T00:36:51;2.43;;;2.00;;
10041;SDS011;5061;49.068;12.058;2022-11-12T00:40:12;2.30;;;2.10;;
10041;SDS011;5061;49.068;12.058;2022-11-12T00:43:32;2.33;;;2.13;;
10041;SDS011;5061;49.068;12.058;2022-11-12T00:46:53;2.10;;;1.83;;
10041;SDS011;5061;49.068;12.058;2022-11-12T00:50:15;3.50;;;2.80;;
10041;SDS011;5061;49.068;12.058;2022-11-12T00:53:35;2.70;;;2.40;;
10041;SDS011;5061;49.068;12.058;2022-11-12T00:56:56;3.83;;;2.20;;
10041;SDS011;5061;49.068;12.058;2022-11-12T01:00:17;2.13;;;1.93;;
10041;SDS011;5061;49.068;12.058;2022-11-12T01:03:38;4.40;;;2.93;;
10041;SDS011;5061;49.068;12.058;2022-11-12T01:07:00;2.50;;;2.13;;
10041;SDS011;5061;49.068;12.058;2022-11-12T01:10:21;3.43;;;2.80;;
10041;SDS011;5061;49.068;12.058;2022-11-12T01:13:42;3.57;;;2.50;;
10041;SDS011;5061;49.068;12.058;2022-11-12T01:17:03;2.20;;;1.97;;
10041;SDS011;5061;49.068;12.058;2022-11-12T01:20:24;2.27;;;2.03;;
10041;SDS011;5061;49.068;12.058;2022-11-12T01:23:45;2.83;;;2.30;;
10041;SDS011;5061;49.068;12.058;2022-11-12T01:27:05;1.83;;;1.73;;
10041;SDS011;5061;49.068;12.058;2022-11-12T01:30:26;3.10;;;2.70;;
10041;SDS011;5061;49.068;12.058;2022-11-12T01:33:47;2.43;;;2.23;;
10041;SDS011;5061;49.068;12.058;2022-11-12T01:37:11;2.80;;;2.37;;
10041;SDS011;5061;49.068;12.058;2022-11-12T01:40:31;3.63;;;2.60;;
10041;SDS011;5061;49.068;12.058;2022-11-12T01:47:43;2.67;;;2.30;;
10041;SDS011;5061;49.068;12.058;2022-11-12T01:51:08;2.40;;;2.20;;
10041;SDS011;5061;49.068;12.058;2022-11-12T01:54:30;2.40;;;2.20;;
10041;SDS011;5061;49.068;12.058;2022-11-12T01:58:13;2.60;;;2.37;;
10041;SDS011;5061;49.068;12.058;2022-11-12T02:01:34;2.83;;;2.53;;
10041;SDS011;5061;49.068;12.058;2022-11-12T02:04:55;2.77;;;2.47;;
10041;SDS011;5061;49.068;12.058;2022-11-12T02:08:16;3.43;;;2.80;;
10041;SDS011;5061;49.068;12.058;2022-11-12T02:11:38;3.20;;;2.73;;
10041;SDS011;5061;49.068;12.058;2022-11-12T02:14:58;3.10;;;2.53;;
10041;SDS011;5061;49.068;12.058;2022-11-12T02:18:19;2.77;;;2.47;;
10041;SDS011;5061;49.068;12.058;2022-11-12T02:21:40;2.90;;;2.53;;
10041;SDS011;5061;49.068;12.058;2022-11-12T02:25:01;2.63;;;2.20;;
10041;SDS011;5061;49.068;12.058;2022-11-12T02:28:22;2.43;;;2.23;;
10041;SDS011;5061;49.068;12.058;2022-11-12T02:31:43;3.20;;;2.70;;
10041;SDS011;5061;49.068;12.058;2022-11-12T02:35:04;4.77;;;4.00;;
10041;SDS011;5061;49.068;12.058;2022-11-12T02:38:25;3.17;;;2.67;;
10041;SDS011;5061;49.068;12.058;2022-11-12T02:41:46;3.20;;;2.90;;
10041;SDS011;5061;49.068;12.058;2022-11-12T02:45:07;3.13;;;2.83;;
10041;SDS011;5061;49.068;12.058;2022-11-12T02:48:28;3.73;;;3.33;;
10041;SDS011;5061;49.068;12.058;2022-11-12T02:51:48;3.63;;;3.03;;
10041;SDS011;5061;49.068;12.058;2022-11-12T02:55:09;3.30;;;3.00;;
10041;SDS011;5061;49.068;12.058;2022-11-12T02:58:31;3.13;;;2.83;;
10041;SDS011;5061;49.068;12.058;2022-11-12T03:01:51;3.80;;;3.00;;
10041;SDS011;5061;49.068;12.058;2022-11-12T03:05:12;3.07;;;2.77;;
10041;SDS011;5061;49.068;12.058;2022-11-12T03:08:33;3.20;;;2.70;;
10041;SDS011;5061;49.068;12.058;2022-11-12T03:11:54;2.87;;;2.43;;
10041;SDS011;5061;49.068;12.058;2022-11-12T03:15:14;2.67;;;2.20;;
10041;SDS011;5061;49.068;12.058;2022-11-12T03:18:36;2.07;;;1.87;;
10041;SDS011;5061;49.068;12.058;2022-11-12T03:21:57;2.17;;;1.80;;
10041;SDS011;5061;49.068;12.058;2022-11-12T03:25:17;2.13;;;2.00;;
10041;SDS011;5061;49.068;12.058;2022-11-12T03:28:38;2.80;;;2.20;;
10041;SDS011;5061;49.068;12.058;2022-11-12T03:31:58;1.70;;;1.60;;
10041;SDS011;5061;49.068;12.058;2022-11-12T03:35:19;2.40;;;2.20;;
10041;SDS011;5061;49.068;12.058;2022-11-12T03:38:40;3.00;;;2.30;;
10041;SDS011;5061;49.068;12.058;2022-11-12T03:42:01;2.27;;;1.97;;
10041;SDS011;5061;49.068;12.058;2022-11-12T03:45:22;2.73;;;2.20;;
10041;SDS011;5061;49.068;12.058;2022-11-12T03:48:44;2.00;;;1.80;;
10041;SDS011;5061;49.068;12.058;2022-11-12T03:52:05;2.73;;;2.40;;
10041;SDS011;5061;49.068;12.058;2022-11-12T03:55:26;2.53;;;2.20;;
10041;SDS011;5061;49.068;12.058;2022-11-12T03:58:48;1.90;;;1.70;;
10041;SDS011;5061;49.068;12.058;2022-11-12T04:02:08;1.60;;;1.50;;
10041;SDS011;5061;49.068;12.058;2022-11-12T04:05:33;2.50;;;2.30;;
10041;SDS011;5061;49.068;12.058;2022-11-12T04:09:12;2.00;;;1.90;;
10041;SDS011;5061;49.068;12.058;2022-11-12T04:12:33;2.20;;;2.00;;
10041;SDS011;5061;49.068;12.058;2022-11-12T04:16:13;2.53;;;2.33;;
10041;SDS011;5061;49.068;12.058;2022-11-12T04:19:54;2.33;;;2.13;;
10041;SDS011;5061;49.068;12.058;2022-11-12T04:23:33;2.10;;;1.90;;
10041;SDS011;5061;49.068;12.058;2022-11-12T04:26:54;1.87;;;1.67;;
10041;SDS011;5061;49.068;12.058;2022-11-12T04:30:14;2.40;;;2.20;;
10041;SDS011;5061;49.068;12.058;2022-11-12T04:33:35;1.77;;;1.67;;
10041;SDS011;5061;49.068;12.058;2022-11-12T04:36:56;2.17;;;1.97;;
10041;SDS011;5061;49.068;12.058;2022-11-12T04:40:17;1.70;;;1.60;;
10041;SDS011;5061;49.068;12.058;2022-11-12T04:43:58;2.00;;;1.70;;
10041;SDS011;5061;49.068;12.058;2022-11-12T04:47:41;1.90;;;1.80;;
10041;SDS011;5061;49.068;12.058;2022-11-12T04:51:05;1.90;;;1.70;;
10041;SDS011;5061;49.068;12.058;2022-11-12T04:54:49;2.03;;;1.90;;
10041;SDS011;5061;49.068;12.058;2022-11-12T04:58:10;1.97;;;1.57;;
10041;SDS011;5061;49.068;12.058;2022-11-12T05:01:30;1.80;;;1.53;;
10041;SDS011;5061;49.068;12.058;2022-11-12T05:04:51;1.53;;;1.43;;
10041;SDS011;5061;49.068;12.058;2022-11-12T05:08:12;1.60;;;1.50;;
10041;SDS011;5061;49.068;12.058;2022-11-12T05:11:32;1.50;;;1.40;;
10041;SDS011;5061;49.068;12.058;2022-11-12T05:14:53;1.40;;;1.30;;
10041;SDS011;5061;49.068;12.058;2022-11-12T05:18:13;1.40;;;1.30;;
10041;SDS011;5061;49.068;12.058;2022-11-12T05:21:34;1.60;;;1.50;;
10041;SDS011;5061;49.068;12.058;2022-11-12T05:25:13;1.50;;;1.40;;
10041;SDS011;5061;49.068;12.058;2022-11-12T05:28:33;1.43;;;1.33;;
10041;SDS011;5061;49.068;12.058;2022-11-12T05:31:54;1.77;;;1.67;;
10041;SDS011;5061;49.068;12.058;2022-11-12T05:35:15;2.27;;;2.03;;
10041;SDS011;5061;49.068;12.058;2022-11-12T05:38:36;1.77;;;1.67;;
10041;SDS011;5061;49.068;12.058;2022-11-12T05:41:58;1.70;;;1.60;;
10041;SDS011;5061;49.068;12.058;2022-11-12T05:45:18;1.70;;;1.60;;
10041;SDS011;5061;49.068;12.058;2022-11-12T05:48:39;1.47;;;1.37;;
10041;SDS011;5061;49.068;12.058;2022-11-12T05:52:00;1.77;;;1.67;;
10041;SDS011;5061;49.068;12.058;2022-11-12T05:55:20;1.50;;;1.40;;
10041;SDS011;5061;49.068;12.058;2022-11-12T05:58:41;1.63;;;1.53;;
10041;SDS011;5061;49.068;12.058;2022-11-12T06:02:01;1.40;;;1.30;;
10041;SDS011;5061;49.068;12.058;2022-11-12T06:05:22;1.53;;;1.37;;
10041;SDS011;5061;49.068;12.058;2022-11-12T06:08:42;1.80;;;1.50;;
10041;SDS011;5061;49.068;12.058;2022-11-12T06:12:03;1.90;;;1.80;;
10041;SDS011;5061;49.068;12.058;2022-11-12T06:15:25;1.70;;;1.60;;
10041;SDS011;5061;49.068;12.058;2022-11-12T06:18:46;1.67;;;1.57;;
10041;SDS011;5061;49.068;12.058;2022-11-12T06:22:06;1.57;;;1.47;;
10041;SDS011;5061;49.068;12.058;2022-11-12T06:25:27;1.53;;;1.43;;
10041;SDS011;5061;49.068;12.058;2022-11-12T06:28:48;1.60;;;1.50;;
10041;SDS011;5061;49.068;12.058;2022-11-12T06:32:09;1.87;;;1.70;;
10041;SDS011;5061;49.068;12.058;2022-11-12T06:35:30;1.50;;;1.40;;
10041;SDS011;5061;49.068;12.058;2022-11-12T06:38:50;1.40;;;1.30;;
10041;SDS011;5061;49.068;12.058;2022-11-12T06:42:11;1.50;;;1.40;;
10041;SDS011;5061;49.068;12.058;2022-11-12T06:45:31;1.30;;;1.20;;
10041;SDS011;5061;49.068;12.058;2022-11-12T06:48:52;1.50;;;1.40;;
10041;SDS011;5061;49.068;12.058;2022-11-12T06:52:13;2.07;;;1.70;;
10041;SDS011;5061;49.068;12.058;2022-11-12T06:55:34;1.53;;;1.43;;
10041;SDS011;5061;49.068;12.058;2022-11-12T06:58:55;1.63;;;1.53;;
10041;SDS011;5061;49.068;12.058;2022-11-12T07:02:15;1.60;;;1.50;;
10041;SDS011;5061;49.068;12.058;2022-11-12T07:05:36;1.20;;;1.10;;
10041;SDS011;5061;49.068;12.058;2022-11-12T07:08:57;1.47;;;1.37;;
10041;SDS011;5061;49.068;12.058;2022-11-12T07:12:18;1.47;;;1.37;;
10041;SDS011;5061;49.068;12.058;2022-11-12T07:15:38;1.30;;;1.20;;
10041;SDS011;5061;49.068;12.058;2022-11-12T07:18:59;2.50;;;1.40;;
10041;SDS011;5061;49.068;12.058;2022-11-12T07:22:20;1.50;;;1.40;;
10041;SDS011;5061;49.068;12.058;2022-11-12T07:25:41;1.37;;;1.27;;
10041;SDS011;5061;49.068;12.058;2022-11-12T07:29:01;1.53;;;1.43;;
10041;SDS011;5061;49.068;12.058;2022-11-12T07:32:22;1.47;;;1.37;;
10041;SDS011;5061;49.068;12.058;2022-11-12T07:35:42;1.30;;;1.20;;
10041;SDS011;5061;49.068;12.058;2022-11-12T07:39:03;1.50;;;1.40;;
10041;SDS011;5061;49.068;12.058;2022-11-12T07:42:24;1.70;;;1.60;;
10041;SDS011;5061;49.068;12.058;2022-11-12T07:45:44;2.10;;;1.83;;
10041;SDS011;5061;49.068;12.058;2022-11-12T07:49:05;1.67;;;1.57;;
10041;SDS011;5061;49.068;12.058;2022-11-12T07:52:26;1.53;;;1.43;;
10041;SDS011;5061;49.068;12.058;2022-11-12T07:55:53;1.43;;;1.33;;
10041;SDS011;5061;49.068;12.058;2022-11-12T07:59:15;1.50;;;1.33;;
10041;SDS011;5061;49.068;12.058;2022-11-12T08:02:35;1.60;;;1.47;;
10041;SDS011;5061;49.068;12.058;2022-11-12T08:05:58;4.60;;;2.00;;
10041;SDS011;5061;49.068;12.058;2022-11-12T08:09:19;2.33;;;2.00;;
10041;SDS011;5061;49.068;12.058;2022-11-12T08:12:40;1.60;;;1.50;;
10041;SDS011;5061;49.068;12.058;2022-11-12T08:16:00;1.53;;;1.30;;
10041;SDS011;5061;49.068;12.058;2022-11-12T08:19:21;2.30;;;2.00;;
10041;SDS011;5061;49.068;12.058;2022-11-12T08:22:42;1.70;;;1.43;;
10041;SDS011;5061;49.068;12.058;2022-11-12T08:26:03;1.60;;;1.50;;
10041;SDS011;5061;49.068;12.058;2022-11-12T08:29:25;1.90;;;1.70;;
10041;SDS011;5061;49.068;12.058;2022-11-12T08:32:46;1.83;;;1.50;;
10041;SDS011;5061;49.068;12.058;2022-11-12T08:36:08;1.63;;;1.53;;
10041;SDS011;5061;49.068;12.058;2022-11-12T08:39:30;1.57;;;1.47;;
10041;SDS011;5061;49.068;12.058;2022-11-12T08:42:58;1.30;;;1.20;;
10041;SDS011;5061;49.068;12.058;2022-11-12T08:46:23;1.73;;;1.20;;
10041;SDS011;5061;49.068;12.058;2022-11-12T08:49:44;1.43;;;1.20;;
10041;SDS011;5061;49.068;12.058;2022-11-12T08:53:13;1.27;;;1.17;;
10041;SDS011;5061;49.068;12.058;2022-11-12T08:56:34;1.63;;;1.40;;
10041;SDS011;5061;49.068;12.058;2022-11-12T08:59:55;1.80;;;1.63;;
10041;SDS011;5061;49.068;12.058;2022-11-12T09:03:16;1.53;;;1.43;;
10041;SDS011;5061;49.068;12.058;2022-11-12T09:06:38;1.40;;;1.30;;
10041;SDS011;5061;49.068;12.058;2022-11-12T09:09:59;1.10;;;1.00;;
10041;SDS011;5061;49.068;12.058;2022-11-12T09:13:20;1.00;;;0.93;;
10041;SDS011;5061;49.068;12.058;2022-11-12T09:16:40;0.80;;;0.80;;
10041;SDS011;5061;49.068;12.058;2022-11-12T09:20:01;2.00;;;1.80;;
10041;SDS011;5061;49.068;12.058;2022-11-12T09:23:22;2.60;;;2.10;;
10041;SDS011;5061;49.068;12.058;2022-11-12T09:26:45;1.67;;;1.57;;
10041;SDS011;5061;49.068;12.058;2022-11-12T09:30:07;1.50;;;1.40;;
10041;SDS011;5061;49.068;12.058;2022-11-12T09:33:29;1.77;;;1.33;;
10041;SDS011;5061;49.068;12.058;2022-11-12T09:36:51;2.23;;;1.87;;
10041;SDS011;5061;49.068;12.058;2022-11-12T09:40:17;1.77;;;1.67;;
10041;SDS011;5061;49.068;12.058;2022-11-12T09:43:40;1.33;;;1.23;;
10041;SDS011;5061;49.068;12.058;2022-11-12T09:50:40;1.97;;;1.77;;
10041;SDS011;5061;49.068;12.058;2022-11-12T09:54:16;1.90;;;1.80;;
10041;SDS011;5061;49.068;12.058;2022-11-12T09:57:45;2.03;;;1.80;;
10041;SDS011;5061;49.068;12.058;2022-11-12T10:01:10;2.37;;;2.17;;
10041;SDS011;5061;49.068;12.058;2022-11-12T10:08:48;2.20;;;2.00;;
10041;SDS011;5061;49.068;12.058;2022-11-12T10:12:16;1.80;;;1.70;;
10041;SDS011;5061;49.068;12.058;2022-11-12T10:15:57;1.87;;;1.60;;
10041;SDS011;5061;49.068;12.058;2022-11-12T10:23:42;2.77;;;2.17;;
10041;SDS011;5061;49.068;12.058;2022-11-12T10:27:11;2.20;;;2.00;;
10041;SDS011;5061;49.068;12.058;2022-11-12T10:30:46;2.30;;;2.07;;
10041;SDS011;5061;49.068;12.058;2022-11-12T10:34:13;2.20;;;2.00;;
10041;SDS011;5061;49.068;12.058;2022-11-12T10:37:40;1.40;;;1.30;;
10041;SDS011;5061;49.068;12.058;2022-11-12T10:41:18;2.10;;;1.57;;
10041;SDS011;5061;49.068;12.058;2022-11-12T10:44:44;1.60;;;1.50;;
10041;SDS011;5061;49.068;12.058;2022-11-12T10:48:18;1.70;;;1.60;;
10041;SDS011;5061;49.068;12.058;2022-11-12T10:51:55;1.40;;;1.30;;
10041;SDS011;5061;49.068;12.058;2022-11-12T10:58:42;1.40;;;1.30;;
10041;SDS011;5061;49.068;12.058;2022-11-12T11:02:13;1.87;;;1.77;;
10041;SDS011;5061;49.068;12.058;2022-11-12T11:05:46;2.20;;;2.00;;
10041;SDS011;5061;49.068;12.058;2022-11-12T11:12:36;1.80;;;1.70;;
10041;SDS011;5061;49.068;12.058;2022-11-12T11:16:01;2.23;;;2.03;;
10041;SDS011;5061;49.068;12.058;2022-11-12T11:19:30;1.73;;;1.63;;
10041;SDS011;5061;49.068;12.058;2022-11-12T11:22:55;1.80;;;1.70;;
10041;SDS011;5061;49.068;12.058;2022-11-12T11:26:30;2.20;;;2.00;;
10041;SDS011;5061;49.068;12.058;2022-11-12T11:30:12;1.60;;;1.50;;
10041;SDS011;5061;49.068;12.058;2022-11-12T11:33:47;2.60;;;2.03;;
10041;SDS011;5061;49.068;12.058;2022-11-12T11:37:31;2.60;;;2.13;;
10041;SDS011;5061;49.068;12.058;2022-11-12T11:41:26;2.70;;;2.50;;
10041;SDS011;5061;49.068;12.058;2022-11-12T11:45:17;2.60;;;2.10;;
10041;SDS011;5061;49.068;12.058;2022-11-12T11:56:02;2.27;;;2.00;;
10041;SDS011;5061;49.068;12.058;2022-11-12T12:03:14;3.67;;;3.10;;
10041;SDS011;5061;49.068;12.058;2022-11-12T12:14:44;3.57;;;3.13;;
10041;SDS011;5061;49.068;12.058;2022-11-12T12:18:36;4.13;;;3.47;;
10041;SDS011;5061;49.068;12.058;2022-11-12T12:22:08;3.00;;;2.70;;
10041;SDS011;5061;49.068;12.058;2022-11-12T12:25:37;2.87;;;2.67;;
10041;SDS011;5061;49.068;12.058;2022-11-12T12:36:25;5.13;;;3.80;;
10041;SDS011;5061;49.068;12.058;2022-11-12T12:47:04;3.33;;;3.03;;
10041;SDS011;5061;49.068;12.058;2022-11-12T12:50:31;4.23;;;3.83;;
10041;SDS011;5061;49.068;12.058;2022-11-12T12:53:55;3.20;;;2.90;;
10041;SDS011;5061;49.068;12.058;2022-11-12T13:00:47;3.80;;;3.40;;
10041;SDS011;5061;49.068;12.058;2022-11-12T13:04:11;4.17;;;3.50;;
10041;SDS011;5061;49.068;12.058;2022-11-12T13:07:44;3.67;;;2.80;;
10041;SDS011;5061;49.068;12.058;2022-11-12T13:11:07;3.20;;;2.90;;
10041;SDS011;5061;49.068;12.058;2022-11-12T13:17:57;3.07;;;2.77;;
10041;SDS011;5061;49.068;12.058;2022-11-12T13:21:19;3.70;;;3.30;;
10041;SDS011;5061;49.068;12.058;2022-11-12T13:28:22;3.10;;;2.80;;
10041;SDS011;5061;49.068;12.058;2022-11-12T13:31:43;3.07;;;2.77;;
10041;SDS011;5061;49.068;12.058;2022-11-12T13:38:33;4.07;;;3.50;;
10041;SDS011;5061;49.068;12.058;2022-11-12T13:42:00;3.23;;;2.93;;
10041;SDS011;5061;49.068;12.058;2022-11-12T13:45:51;3.77;;;2.90;;
10041;SDS011;5061;49.068;12.058;2022-11-12T13:49:19;3.10;;;2.80;;
10041;SDS011;5061;49.068;12.058;2022-11-12T13:52:40;3.10;;;2.80;;
10041;SDS011;5061;49.068;12.058;2022-11-12T13:56:01;2.10;;;2.00;;
10041;SDS011;5061;49.068;12.058;2022-11-12T13:59:23;4.70;;;2.87;;
10041;SDS011;5061;49.068;12.058;2022-11-12T14:02:46;2.80;;;2.40;;
10041;SDS011;5061;49.068;12.058;2022-11-12T14:06:18;2.60;;;2.33;;
10041;SDS011;5061;49.068;12.058;2022-11-12T14:13:21;2.80;;;2.30;;
10041;SDS011;5061;49.068;12.058;2022-11-12T14:20:42;1.60;;;1.50;;
10041;SDS011;5061;49.068;12.058;2022-11-12T14:24:04;2.27;;;2.07;;
10041;SDS011;5061;49.068;12.058;2022-11-12T14:30:51;2.50;;;2.30;;
10041;SDS011;5061;49.068;12.058;2022-11-12T14:34:25;2.70;;;2.40;;
10041;SDS011;5061;49.068;12.058;2022-11-12T14:37:56;2.93;;;2.60;;
10041;SDS011;5061;49.068;12.058;2022-11-12T14:41:23;2.67;;;2.40;;
10041;SDS011;5061;49.068;12.058;2022-11-12T14:44:48;2.90;;;2.17;;
10041;SDS011;5061;49.068;12.058;2022-11-12T14:48:09;3.57;;;2.93;;
10041;SDS011;5061;49.068;12.058;2022-11-12T14:51:30;2.93;;;2.63;;
10041;SDS011;5061;49.068;12.058;2022-11-12T14:54:59;3.27;;;2.40;;
10041;SDS011;5061;49.068;12.058;2022-11-12T14:58:26;3.03;;;2.73;;
10041;SDS011;5061;49.068;12.058;2022-11-12T15:05:27;2.53;;;2.03;;
10041;SDS011;5061;49.068;12.058;2022-11-12T15:08:54;2.20;;;1.90;;
10041;SDS011;5061;49.068;12.058;2022-11-12T15:12:24;2.00;;;1.80;;
10041;SDS011;5061;49.068;12.058;2022-11-12T15:15:49;2.07;;;1.90;;
10041;SDS011;5061;49.068;12.058;2022-11-12T15:19:15;2.17;;;1.97;;
10041;SDS011;5061;49.068;12.058;2022-11-12T15:22:47;3.53;;;3.00;;
10041;SDS011;5061;49.068;12.058;2022-11-12T15:26:10;2.60;;;2.40;;
10041;SDS011;5061;49.068;12.058;2022-11-12T15:29:34;3.00;;;2.20;;
10041;SDS011;5061;49.068;12.058;2022-11-12T15:36:31;3.23;;;2.70;;
10041;SDS011;5061;49.068;12.058;2022-11-12T15:39:58;3.77;;;3.30;;
10041;SDS011;5061;49.068;12.058;2022-11-12T15:43:29;3.47;;;2.53;;
10041;SDS011;5061;49.068;12.058;2022-11-12T15:46:54;2.13;;;1.93;;
10041;SDS011;5061;49.068;12.058;2022-11-12T15:50:16;2.47;;;2.27;;
10041;SDS011;5061;49.068;12.058;2022-11-12T15:53:41;4.37;;;3.13;;
10041;SDS011;5061;49.068;12.058;2022-11-12T15:57:02;4.07;;;2.77;;
10041;SDS011;5061;49.068;12.058;2022-11-12T16:00:29;5.70;;;4.30;;
10041;SDS011;5061;49.068;12.058;2022-11-12T16:03:51;13.30;;;8.67;;
10041;SDS011;5061;49.068;12.058;2022-11-12T16:07:12;11.57;;;7.47;;
10041;SDS011;5061;49.068;12.058;2022-11-12T16:10:33;7.13;;;5.17;;
10041;SDS011;5061;49.068;12.058;2022-11-12T16:13:55;5.20;;;4.10;;
10041;SDS011;5061;49.068;12.058;2022-11-12T16:17:16;4.10;;;3.67;;
10041;SDS011;5061;49.068;12.058;2022-11-12T16:20:37;4.60;;;3.67;;
10041;SDS011;5061;49.068;12.058;2022-11-12T16:23:58;3.37;;;2.80;;
10041;SDS011;5061;49.068;12.058;2022-11-12T16:27:18;3.20;;;2.87;;
10041;SDS011;5061;49.068;12.058;2022-11-12T16:30:39;4.43;;;3.70;;
10041;SDS011;5061;49.068;12.058;2022-11-12T16:34:00;4.77;;;3.77;;
10041;SDS011;5061;49.068;12.058;2022-11-12T16:37:20;2.60;;;2.40;;
10041;SDS011;5061;49.068;12.058;2022-11-12T16:40:42;2.50;;;2.30;;
10041;SDS011;5061;49.068;12.058;2022-11-12T16:44:03;2.20;;;2.00;;
10041;SDS011;5061;49.068;12.058;2022-11-12T16:47:24;2.47;;;2.10;;
10041;SDS011;5061;49.068;12.058;2022-11-12T16:50:45;2.47;;;2.27;;
10041;SDS011;5061;49.068;12.058;2022-11-12T16:54:06;2.03;;;1.87;;
10041;SDS011;5061;49.068;12.058;2022-11-12T16:57:27;2.60;;;2.40;;
10041;SDS011;5061;49.068;12.058;2022-11-12T17:00:47;2.50;;;2.13;;
10041;SDS011;5061;49.068;12.058;2022-11-12T17:04:11;2.77;;;2.40;;
10041;SDS011;5061;49.068;12.058;2022-11-12T17:07:32;2.90;;;2.60;;
10041;SDS011;5061;49.068;12.058;2022-11-12T17:10:53;2.87;;;2.43;;
10041;SDS011;5061;49.068;12.058;2022-11-12T17:14:14;3.53;;;3.00;;
10041;SDS011;5061;49.068;12.058;2022-11-12T17:17:37;3.03;;;2.73;;
10041;SDS011;5061;49.068;12.058;2022-11-12T17:21:08;3.00;;;2.70;;
10041;SDS011;5061;49.068;12.058;2022-11-12T17:24:33;3.10;;;2.80;;
10041;SDS011;5061;49.068;12.058;2022-11-12T17:27:54;2.80;;;2.60;;
10041;SDS011;5061;49.068;12.058;2022-11-12T17:31:18;2.70;;;2.50;;
10041;SDS011;5061;49.068;12.058;2022-11-12T17:34:40;3.00;;;2.70;;
10041;SDS011;5061;49.068;12.058;2022-11-12T17:38:01;2.90;;;2.60;;
10041;SDS011;5061;49.068;12.058;2022-11-12T17:41:22;3.20;;;2.70;;
10041;SDS011;5061;49.068;12.058;2022-11-12T17:44:43;3.97;;;3.20;;
10041;SDS011;5061;49.068;12.058;2022-11-12T17:48:05;3.40;;;2.97;;
10041;SDS011;5061;49.068;12.058;2022-11-12T17:51:26;3.73;;;3.10;;
10041;SDS011;5061;49.068;12.058;2022-11-12T17:54:48;2.60;;;2.40;;
10041;SDS011;5061;49.068;12.058;2022-11-12T17:58:09;2.40;;;2.20;;
10041;SDS011;5061;49.068;12.058;2022-11-12T18:01:30;2.50;;;2.30;;
10041;SDS011;5061;49.068;12.058;2022-11-12T18:04:51;3.00;;;2.70;;
10041;SDS011;5061;49.068;12.058;2022-11-12T18:08:12;2.90;;;2.70;;
10041;SDS011;5061;49.068;12.058;2022-11-12T18:11:41;3.57;;;2.63;;
10041;SDS011;5061;49.068;12.058;2022-11-12T18:15:04;3.27;;;2.97;;
10041;SDS011;5061;49.068;12.058;2022-11-12T18:18:25;2.73;;;2.50;;
10041;SDS011;5061;49.068;12.058;2022-11-12T18:21:46;2.57;;;2.37;;
10041;SDS011;5061;49.068;12.058;2022-11-12T18:25:07;2.43;;;2.23;;
10041;SDS011;5061;49.068;12.058;2022-11-12T18:28:28;2.60;;;2.40;;
10041;SDS011;5061;49.068;12.058;2022-11-12T18:31:48;2.07;;;1.97;;
10041;SDS011;5061;49.068;12.058;2022-11-12T18:35:09;2.43;;;2.17;;
10041;SDS011;5061;49.068;12.058;2022-11-12T18:38:33;2.73;;;2.53;;
10041;SDS011;5061;49.068;12.058;2022-11-12T18:41:55;2.30;;;2.10;;
10041;SDS011;5061;49.068;12.058;2022-11-12T18:45:15;2.90;;;2.13;;
10041;SDS011;5061;49.068;12.058;2022-11-12T18:48:36;3.20;;;2.90;;
10041;SDS011;5061;49.068;12.058;2022-11-12T18:51:57;2.97;;;2.77;;
10041;SDS011;5061;49.068;12.058;2022-11-12T18:55:18;2.43;;;2.23;;
10041;SDS011;5061;49.068;12.058;2022-11-12T18:58:39;3.40;;;3.10;;
10041;SDS011;5061;49.068;12.058;2022-11-12T19:02:00;2.70;;;2.50;;
10041;SDS011;5061;49.068;12.058;2022-11-12T19:05:20;2.30;;;2.10;;
10041;SDS011;5061;49.068;12.058;2022-11-12T19:08:41;2.50;;;2.30;;
10041;SDS011;5061;49.068;12.058;2022-11-12T19:12:02;3.17;;;2.87;;
10041;SDS011;5061;49.068;12.058;2022-11-12T19:15:22;2.40;;;2.20;;
10041;SDS011;5061;49.068;12.058;2022-11-12T19:18:43;4.50;;;2.80;;
10041;SDS011;5061;49.068;12.058;2022-11-12T19:22:04;4.00;;;3.10;;
10041;SDS011;5061;49.068;12.058;2022-11-12T19:25:25;3.03;;;2.67;;
10041;SDS011;5061;49.068;12.058;2022-11-12T19:28:46;4.40;;;2.90;;
10041;SDS011;5061;49.068;12.058;2022-11-12T19:32:06;3.30;;;3.00;;
10041;SDS011;5061;49.068;12.058;2022-11-12T19:35:27;3.73;;;3.10;;
10041;SDS011;5061;49.068;12.058;2022-11-12T19:38:58;2.87;;;2.60;;
10041;SDS011;5061;49.068;12.058;2022-11-12T19:42:21;2.30;;;2.10;;
10041;SDS011;5061;49.068;12.058;2022-11-12T19:45:41;2.50;;;2.30;;
10041;SDS011;5061;49.068;12.058;2022-11-12T19:49:02;2.60;;;2.40;;
10041;SDS011;5061;49.068;12.058;2022-11-12T19:52:23;2.37;;;2.17;;
10041;SDS011;5061;49.068;12.058;2022-11-12T19:55:43;1.73;;;1.63;;
10041;SDS011;5061;49.068;12.058;2022-11-12T19:59:04;2.07;;;1.90;;
10041;SDS011;5061;49.068;12.058;2022-11-12T20:02:25;2.00;;;1.90;;
10041;SDS011;5061;49.068;12.058;2022-11-12T20:05:45;1.40;;;1.30;;
10041;SDS011;5061;49.068;12.058;2022-11-12T20:09:06;1.90;;;1.73;;
10041;SDS011;5061;49.068;12.058;2022-11-12T20:12:27;1.50;;;1.37;;
10041;SDS011;5061;49.068;12.058;2022-11-12T20:15:49;1.77;;;1.63;;
10041;SDS011;5061;49.068;12.058;2022-11-12T20:19:09;1.80;;;1.70;;
10041;SDS011;5061;49.068;12.058;2022-11-12T20:22:31;1.70;;;1.60;;
10041;SDS011;5061;49.068;12.058;2022-11-12T20:25:52;1.80;;;1.70;;
10041;SDS011;5061;49.068;12.058;2022-11-12T20:29:13;1.57;;;1.40;;
10041;SDS011;5061;49.068;12.058;2022-11-12T20:32:33;1.60;;;1.50;;
10041;SDS011;5061;49.068;12.058;2022-11-12T20:35:54;2.17;;;1.97;;
10041;SDS011;5061;49.068;12.058;2022-11-12T20:39:20;2.43;;;2.20;;
10041;SDS011;5061;49.068;12.058;2022-11-12T20:42:41;3.57;;;2.03;;
10041;SDS011;5061;49.068;12.058;2022-11-12T20:46:02;2.67;;;2.17;;
10041;SDS011;5061;49.068;12.058;2022-11-12T20:49:23;2.60;;;2.27;;
10041;SDS011;5061;49.068;12.058;2022-11-12T20:52:43;3.93;;;3.63;;
10041;SDS011;5061;49.068;12.058;2022-11-12T20:56:12;3.77;;;3.37;;
10041;SDS011;5061;49.068;12.058;2022-11-12T20:59:35;3.10;;;2.80;;
10041;SDS011;5061;49.068;12.058;2022-11-12T21:03:00;2.27;;;2.07;;
10041;SDS011;5061;49.068;12.058;2022-11-12T21:06:21;1.80;;;1.70;;
10041;SDS011;5061;49.068;12.058;2022-11-12T21:09:43;2.27;;;2.07;;
10041;SDS011;5061;49.068;12.058;2022-11-12T21:13:04;2.53;;;2.33;;
10041;SDS011;5061;49.068;12.058;2022-11-12T21:16:24;2.33;;;2.13;;
10041;SDS011;5061;49.068;12.058;2022-11-12T21:19:45;3.20;;;1.93;;
10041;SDS011;5061;49.068;12.058;2022-11-12T21:23:06;1.93;;;1.83;;
10041;SDS011;5061;49.068;12.058;2022-11-12T21:26:27;2.10;;;1.90;;
10041;SDS011;5061;49.068;12.058;2022-11-12T21:29:47;2.10;;;1.90;;
10041;SDS011;5061;49.068;12.058;2022-11-12T21:33:08;2.13;;;1.93;;
10041;SDS011;5061;49.068;12.058;2022-11-12T21:36:32;2.03;;;1.83;;
10041;SDS011;5061;49.068;12.058;2022-11-12T21:39:54;2.03;;;1.80;;
10041;SDS011;5061;49.068;12.058;2022-11-12T21:43:14;1.80;;;1.70;;
10041;SDS011;5061;49.068;12.058;2022-11-12T21:46:35;1.93;;;1.60;;
10041;SDS011;5061;49.068;12.058;2022-11-12T21:49:56;2.00;;;1.83;;
10041;SDS011;5061;49.068;12.058;2022-11-12T21:53:17;1.63;;;1.53;;